Time;durP1;ratioP1;P1;durP2;ratioP2;P2;SDS_P1;SDS_P2;PMS_P1;PMS_P2;Temp;Humidity;BMP_temperature;BMP_pressure;BME280_temperature;BME280_humidity;BME280_pressure;Samples;Min_cycle;Max_cycle;Signal;HPM_P1;HPM_P2
2022/09/22 00:00:44;;;;;;;;;;;;;;;9.27;86.74;100555.84;3056303;19;19936;-55
2022/09/22 00:01:46;;;;;;;;;;;;;;;9.24;86.81;100554.19;3055677;19;20048;-55
2022/09/22 00:02:50;;;;;;;;;;;;;;;9.20;86.53;100554.44;3056027;19;19922;-55
2022/09/22 00:03:57;;;;;;;;;;;;;;;9.19;86.74;100558.91;3056052;19;19918;-55
2022/09/22 00:05:02;;;;;;;;;;;;;;;9.17;86.88;100554.63;3056727;19;19939;-55
2022/09/22 00:06:14;;;;;;;;;;;;;;;9.16;86.64;100552.91;3055853;19;19927;-55
2022/09/22 00:07:19;;;;;;;;;;;;;;;9.13;86.90;100553.06;3055571;19;19954;-55
2022/09/22 00:08:20;;;;;;;;;;;;;;;9.10;86.81;100551.44;3055526;19;20032;-54
2022/09/22 00:09:25;;;;;;;;;;;;;;;9.09;86.81;100551.50;3056203;19;20004;-55
2022/09/22 00:10:27;;;;;;;;;;;;;;;9.08;86.78;100555.13;3056392;19;19959;-55
2022/09/22 00:11:35;;;;;;;;;;;;;;;9.06;86.76;100547.22;3056829;19;19938;-54
2022/09/22 00:12:37;;;;;;;;;;;;;;;9.08;86.79;100560.44;3055628;19;19932;-55
2022/09/22 00:13:42;;;;;;;;;;;;;;;9.05;86.72;100556.16;3056576;19;19934;-55
2022/09/22 00:14:44;;;;;;;;;;;;;;;9.02;86.74;100546.53;3055537;19;19919;-55
2022/09/22 00:15:49;;;;;;;;;;;;;;;9.02;86.72;100554.53;3056490;19;19974;-55
2022/09/22 00:16:56;;;;;;;;;;;;;;;9.01;86.74;100543.94;3055583;19;20281;-55
2022/09/22 00:17:57;;;;;;;;;;;;;;;9.22;86.63;100557.88;3055134;19;19931;-54
2022/09/22 00:19:02;;;;;;;;;;;;;;;9.28;86.24;100557.56;3054153;19;20323;-54
2022/09/22 00:20:04;;;;;;;;;;;;;;;9.32;86.37;100559.97;3056164;19;20005;-55
2022/09/22 00:21:11;;;;;;;;;;;;;;;9.16;87.28;100552.91;3055662;19;19927;-54
2022/09/22 00:22:15;;;;;;;;;;;;;;;9.15;87.76;100556.53;3055944;19;19918;-54
2022/09/22 00:23:17;;;;;;;;;;;;;;;9.16;88.15;100550.25;3055716;19;19986;-55
2022/09/22 00:24:22;;;;;;;;;;;;;;;9.12;87.96;100546.03;3055953;19;19919;-55
2022/09/22 00:25:23;;;;;;;;;;;;;;;9.19;88.10;100558.03;3055404;19;20331;-55
2022/09/22 00:26:28;;;;;;;;;;;;;;;9.18;88.05;100553.66;3056137;19;20066;-54
2022/09/22 00:27:30;;;;;;;;;;;;;;;9.15;88.47;100553.84;3055338;19;20292;-54
2022/09/22 00:28:35;;;;;;;;;;;;;;;9.12;88.71;100546.03;3056010;19;19994;-55
2022/09/22 00:29:37;;;;;;;;;;;;;;;8.91;89.15;100554.25;3055849;19;19915;-55
2022/09/22 00:30:41;;;;;;;;;;;;;;;8.85;89.43;100549.22;3055948;19;19971;-55
2022/09/22 00:31:43;;;;;;;;;;;;;;;8.81;88.99;100553.03;3055347;19;19939;-55
2022/09/22 00:32:48;;;;;;;;;;;;;;;8.80;88.82;100550.44;3055575;19;20453;-55
2022/09/22 00:33:50;;;;;;;;;;;;;;;8.77;88.82;100546.13;3054897;19;20012;-54
2022/09/22 00:34:55;;;;;;;;;;;;;;;8.77;88.59;100548.78;3055776;19;20334;-55
2022/09/22 00:35:57;;;;;;;;;;;;;;;8.76;88.56;100548.88;3055734;19;19921;-54
2022/09/22 00:37:02;;;;;;;;;;;;;;;8.75;88.54;100553.31;3055747;19;19919;-55
2022/09/22 00:38:04;;;;;;;;;;;;;;;8.74;88.50;100551.59;3055537;19;19936;-54
2022/09/22 00:39:09;;;;;;;;;;;;;;;8.74;88.52;100551.59;3055977;19;19919;-55
2022/09/22 00:40:11;;;;;;;;;;;;;;;8.72;88.40;100552.63;3055934;19;19915;-55
2022/09/22 00:41:19;;;;;;;;;;;;;;;8.69;88.39;100553.66;3055004;19;19943;-54
2022/09/22 00:42:21;;;;;;;;;;;;;;;8.68;88.24;100557.28;3055113;19;19943;-55
2022/09/22 00:43:26;;;;;;;;;;;;;;;8.66;88.21;100556.47;3055218;19;19935;-54
2022/09/22 00:44:28;;;;;;;;;;;;;;;8.66;88.28;100553.81;3054454;19;19996;-54
2022/09/22 00:45:33;;;;;;;;;;;;;;;8.63;88.18;100554.84;3055520;19;19922;-55
2022/09/22 00:46:35;;;;;;;;;;;;;;;8.62;88.22;100557.56;3055391;19;20050;-54
2022/09/22 00:47:41;;;;;;;;;;;;;;;8.60;88.25;100549.66;3055476;19;19927;-55
2022/09/22 00:48:45;;;;;;;;;;;;;;;8.58;88.47;100561.31;3055519;19;20002;-55
2022/09/22 00:50:02;;;;;;;;;;;;;;;8.56;88.22;100548.13;3055327;19;20068;-55
2022/09/22 00:51:04;;;;;;;;;;;;;;;8.55;88.47;100554.38;3055445;19;20323;-55
2022/09/22 00:52:09;;;;;;;;;;;;;;;8.54;88.37;100559.78;3055475;19;19946;-55
2022/09/22 00:53:12;;;;;;;;;;;;;;;8.53;88.33;100552.75;3054364;19;19922;-57
2022/09/22 00:54:17;;;;;;;;;;;;;;;8.53;88.37;100558.06;3054524;19;20001;-54
2022/09/22 00:55:28;;;;;;;;;;;;;;;8.54;88.21;100555.31;3054805;19;20348;-55
2022/09/22 00:56:34;;;;;;;;;;;;;;;8.54;88.19;100554.47;3054596;19;19922;-54
2022/09/22 00:57:35;;;;;;;;;;;;;;;8.55;88.11;100550.88;3055631;19;19957;-55
2022/09/22 00:58:42;;;;;;;;;;;;;;;8.55;87.89;100551.72;3054834;19;19919;-55
2022/09/22 00:59:44;;;;;;;;;;;;;;;8.57;87.65;100551.66;3054971;19;19926;-55
2022/09/22 01:00:48;;;;;;;;;;;;;;;8.58;87.75;100550.69;3054219;19;20386;-55
2022/09/22 01:01:50;;;;;;;;;;;;;;;8.57;87.67;100549.00;3054792;19;20362;-54
2022/09/22 01:02:56;;;;;;;;;;;;;;;8.59;87.65;100547.09;3054090;19;19925;-54
2022/09/22 01:03:58;;;;;;;;;;;;;;;8.58;87.59;100546.22;3054234;19;19951;-55
2022/09/22 01:05:02;;;;;;;;;;;;;;;8.59;87.27;100541.75;3053622;19;20326;-55
2022/09/22 01:06:05;;;;;;;;;;;;;;;8.60;87.54;100546.16;3054194;19;20509;-54
2022/09/22 01:07:10;;;;;;;;;;;;;;;8.60;87.36;100546.16;3054107;19;19927;-54
2022/09/22 01:08:12;;;;;;;;;;;;;;;8.61;87.30;100547.88;3054109;19;19914;-54
2022/09/22 01:09:16;;;;;;;;;;;;;;;8.61;87.06;100553.19;3053723;19;19923;-55
2022/09/22 01:10:21;;;;;;;;;;;;;;;8.62;87.26;100553.13;3054771;19;19919;-54
2022/09/22 01:11:24;;;;;;;;;;;;;;;8.62;87.18;100560.22;3054898;19;19926;-55
2022/09/22 01:12:31;;;;;;;;;;;;;;;8.61;87.24;100554.06;3054969;19;19988;-55
2022/09/22 01:13:42;;;;;;;;;;;;;;;8.61;87.16;100545.22;3054192;19;19919;-55
2022/09/22 01:15:00;;;;;;;;;;;;;;;8.59;87.10;100547.09;3053759;19;20000;-55
2022/09/22 01:16:14;;;;;;;;;;;;;;;8.57;87.04;100546.34;3054549;19;20396;-55
2022/09/22 01:17:28;;;;;;;;;;;;;;;8.56;86.92;100541.94;3052768;19;20028;-55
2022/09/22 01:18:34;;;;;;;;;;;;;;;8.49;87.00;100529.91;3054079;19;20041;-55
2022/09/22 01:19:57;;;;;;;;;;;;;;;8.57;87.10;100554.31;3053513;19;19988;-55
2022/09/22 01:21:01;;;;;;;;;;;;;;;8.57;87.10;100543.69;3054123;19;19936;-55
2022/09/22 01:22:08;;;;;;;;;;;;;;;8.57;86.97;100549.00;3055363;19;20396;-55
2022/09/22 01:23:29;;;;;;;;;;;;;;;8.58;86.79;100551.53;3054143;19;19982;-55
2022/09/22 01:24:39;;;;;;;;;;;;;;;8.60;86.83;100548.81;3055411;19;19919;-55
2022/09/22 01:25:41;;;;;;;;;;;;;;;8.59;86.70;100552.41;3055294;19;19930;-54
2022/09/22 01:26:46;;;;;;;;;;;;;;;8.59;86.35;100547.94;3054777;19;19951;-54
2022/09/22 01:27:53;;;;;;;;;;;;;;;8.62;86.19;100552.25;3053665;19;20324;-54
2022/09/22 01:29:10;;;;;;;;;;;;;;;8.62;86.16;100549.59;3053668;19;19923;-54
2022/09/22 01:30:12;;;;;;;;;;;;;;;8.65;85.97;100552.09;3055028;19;19982;-55
2022/09/22 01:31:22;;;;;;;;;;;;;;;8.64;85.72;100542.41;3054982;19;19914;-55
2022/09/22 01:32:27;;;;;;;;;;;;;;;8.66;85.24;100548.50;3054412;19;19923;-55
2022/09/22 01:33:40;;;;;;;;;;;;;;;8.67;85.03;100544.91;3053782;19;20681;-57
2022/09/22 01:34:44;;;;;;;;;;;;;;;8.68;85.08;100549.28;3055123;19;19923;-55
2022/09/22 01:35:51;;;;;;;;;;;;;;;8.69;84.92;100548.34;3054125;19;19929;-56
2022/09/22 01:37:15;;;;;;;;;;;;;;;8.71;84.68;100551.75;3055189;19;19930;-54
2022/09/22 01:38:30;;;;;;;;;;;;;;;8.74;84.34;100548.94;3054218;19;20338;-55
2022/09/22 01:39:36;;;;;;;;;;;;;;;8.77;84.49;100546.13;3054730;19;19931;-55
2022/09/22 01:40:43;;;;;;;;;;;;;;;8.81;84.37;100542.38;3054397;19;20006;-54
2022/09/22 01:42:06;;;;;;;;;;;;;;;8.84;84.07;100542.19;3053852;19;19963;-55
2022/09/22 01:43:14;;;;;;;;;;;;;;;8.89;84.26;100545.47;3054462;19;20004;-55
2022/09/22 01:44:38;;;;;;;;;;;;;;;8.93;83.85;100549.69;3053433;19;20335;-55
2022/09/22 01:45:41;;;;;;;;;;;;;;;8.95;83.89;100550.44;3054605;19;19931;-55
2022/09/22 01:46:48;;;;;;;;;;;;;;;8.97;83.80;100553.91;3054095;19;19939;-55
2022/09/22 01:47:54;;;;;;;;;;;;;;;8.99;83.65;100554.69;3054281;19;19927;-55
2022/09/22 01:49:00;;;;;;;;;;;;;;;9.01;83.69;100550.13;3053616;19;19978;-55
2022/09/22 01:50:03;;;;;;;;;;;;;;;9.02;83.78;100557.19;3054034;19;20037;-55
2022/09/22 01:51:27;;;;;;;;;;;;;;;9.02;83.73;100551.88;3055154;19;19940;-55
2022/09/22 01:52:30;;;;;;;;;;;;;;;9.02;83.62;100554.53;3053829;19;20467;-55
2022/09/22 01:53:36;;;;;;;;;;;;;;;9.05;83.59;100552.66;3053921;19;20360;-55
2022/09/22 01:54:44;;;;;;;;;;;;;;;9.06;83.58;100557.03;3054968;19;19922;-55
2022/09/22 01:55:58;;;;;;;;;;;;;;;9.06;83.78;100557.03;3057147;19;19923;-55
2022/09/22 01:57:03;;;;;;;;;;;;;;;9.07;83.68;100553.38;3056847;19;19914;-54
2022/09/22 01:58:15;;;;;;;;;;;;;;;9.07;83.76;100553.38;3057391;19;19931;-55
2022/09/22 01:59:16;;;;;;;;;;;;;;;9.06;83.66;100557.03;3057923;19;20021;-55
2022/09/22 02:00:22;;;;;;;;;;;;;;;9.05;83.44;100560.63;3056813;19;20010;-55
2022/09/22 02:01:28;;;;;;;;;;;;;;;9.03;83.69;100553.59;3057107;19;19930;-54
2022/09/22 02:02:34;;;;;;;;;;;;;;;9.01;83.93;100552.81;3056911;19;19928;-55
2022/09/22 02:03:39;;;;;;;;;;;;;;;8.96;84.02;100552.19;3056304;19;20369;-54
2022/09/22 02:04:45;;;;;;;;;;;;;;;8.94;84.45;100556.72;3056914;19;19930;-55
2022/09/22 02:05:48;;;;;;;;;;;;;;;8.90;84.93;100552.53;3058186;19;19951;-55
2022/09/22 02:06:56;;;;;;;;;;;;;;;8.88;85.17;100554.41;3056393;19;19947;-55
2022/09/22 02:07:59;;;;;;;;;;;;;;;8.87;85.36;100559.81;3057038;19;20295;-55
2022/09/22 02:09:05;;;;;;;;;;;;;;;8.85;85.29;100565.19;3055763;19;20323;-54
2022/09/22 02:10:09;;;;;;;;;;;;;;;8.83;85.51;100566.22;3056891;19;19926;-55
2022/09/22 02:11:15;;;;;;;;;;;;;;;8.83;85.27;100563.56;3056473;19;19988;-55
2022/09/22 02:12:18;;;;;;;;;;;;;;;8.82;85.25;100565.34;3056982;19;19923;-55
2022/09/22 02:13:23;;;;;;;;;;;;;;;8.83;85.32;100567.06;3056249;19;19931;-55
2022/09/22 02:14:24;;;;;;;;;;;;;;;8.82;85.19;100565.34;3056778;19;20343;-55
2022/09/22 02:16:46;;;;;;;;;;;;;;;8.86;85.24;100561.59;3056372;19;19919;-55
2022/09/22 02:17:47;;;;;;;;;;;;;;;8.87;85.08;100560.66;3056360;19;20359;-54
2022/09/22 02:18:53;;;;;;;;;;;;;;;8.86;85.02;100566.91;3056770;19;19915;-55
2022/09/22 02:19:55;;;;;;;;;;;;;;;8.88;84.79;100557.06;3056376;19;20016;-55
2022/09/22 02:20:59;;;;;;;;;;;;;;;8.91;84.72;100553.38;3056919;19;20039;-55
2022/09/22 02:22:02;;;;;;;;;;;;;;;8.92;84.79;100553.31;3056625;19;20290;-55
2022/09/22 02:23:06;;;;;;;;;;;;;;;8.95;84.68;100561.09;3056856;19;20063;-55
2022/09/22 02:24:27;;;;;;;;;;;;;;;8.97;84.40;100545.91;3056195;19;19943;-54
2022/09/22 02:25:32;;;;;;;;;;;;;;;9.02;84.00;100551.00;3057281;19;19918;-55
2022/09/22 02:26:34;;;;;;;;;;;;;;;9.03;83.97;100548.25;3056864;19;19979;-55
2022/09/22 02:27:39;;;;;;;;;;;;;;;9.06;83.67;100551.69;3056613;19;19922;-55
2022/09/22 02:28:41;;;;;;;;;;;;;;;9.08;83.37;100549.78;3057361;19;19927;-55
2022/09/22 02:29:46;;;;;;;;;;;;;;;9.10;82.89;100545.25;3055009;19;19986;-55
2022/09/22 02:30:49;;;;;;;;;;;;;;;9.12;82.52;100546.03;3057189;19;19944;-55
2022/09/22 02:32:14;;;;;;;;;;;;;;;9.11;82.28;100544.31;3056325;19;19939;-55
2022/09/22 02:33:17;;;;;;;;;;;;;;;9.12;82.57;100540.69;3057782;19;19923;-55
2022/09/22 02:34:22;;;;;;;;;;;;;;;9.12;82.53;100541.56;3057139;19;20562;-54
2022/09/22 02:35:24;;;;;;;;;;;;;;;9.12;82.54;100540.69;3057778;19;19944;-55
2022/09/22 02:36:39;;;;;;;;;;;;;;;9.15;82.39;100545.88;3055907;19;20665;-55
2022/09/22 02:37:43;;;;;;;;;;;;;;;9.16;82.55;100548.44;3056651;19;20696;-55
2022/09/22 02:38:54;;;;;;;;;;;;;;;9.17;82.59;100544.00;3056006;19;20003;-54
2022/09/22 02:40:06;;;;;;;;;;;;;;;9.16;82.37;100547.59;3056255;19;19951;-55
2022/09/22 02:41:13;;;;;;;;;;;;;;;9.15;82.67;100545.88;3056993;19;19986;-54
2022/09/22 02:42:28;;;;;;;;;;;;;;;9.13;82.72;100545.09;3056173;19;20010;-55
2022/09/22 02:43:42;;;;;;;;;;;;;;;9.14;82.95;100549.47;3056410;19;19915;-55
2022/09/22 02:44:50;;;;;;;;;;;;;;;9.13;83.08;100551.28;3056183;19;19915;-54
2022/09/22 02:45:54;;;;;;;;;;;;;;;9.13;83.17;100547.75;3057097;19;19975;-54
2022/09/22 02:47:01;;;;;;;;;;;;;;;9.12;83.03;100549.56;3056931;19;20331;-55
2022/09/22 02:48:12;;;;;;;;;;;;;;;9.13;83.04;100553.06;3057175;19;20465;-54
2022/09/22 02:49:16;;;;;;;;;;;;;;;9.11;83.25;100547.84;3055787;19;19982;-55
2022/09/22 02:50:21;;;;;;;;;;;;;;;9.11;83.32;100544.31;3055838;19;19978;-55
2022/09/22 02:51:23;;;;;;;;;;;;;;;9.10;83.25;100550.56;3056401;19;19955;-55
2022/09/22 02:52:27;;;;;;;;;;;;;;;9.10;83.12;100553.22;3056620;19;19943;-55
2022/09/22 02:53:29;;;;;;;;;;;;;;;9.11;83.10;100560.28;3055861;19;20047;-55
2022/09/22 02:54:33;;;;;;;;;;;;;;;9.11;83.32;100549.63;3056415;19;19973;-55
2022/09/22 02:55:35;;;;;;;;;;;;;;;9.14;83.33;100546.81;3057130;19;20315;-55
2022/09/22 02:56:41;;;;;;;;;;;;;;;9.15;83.21;100551.19;3055990;19;19915;-55
2022/09/22 02:57:43;;;;;;;;;;;;;;;9.17;83.06;100550.16;3056149;19;19934;-55
2022/09/22 02:58:47;;;;;;;;;;;;;;;9.17;82.79;100550.16;3056506;19;19927;-55
2022/09/22 02:59:49;;;;;;;;;;;;;;;9.20;82.95;100547.31;3057271;19;19958;-55
2022/09/22 03:00:54;;;;;;;;;;;;;;;9.22;82.73;100553.41;3057405;19;19922;-55
2022/09/22 03:01:56;;;;;;;;;;;;;;;9.24;82.72;100545.34;3057177;19;19915;-56
2022/09/22 03:03:00;;;;;;;;;;;;;;;9.20;82.62;100541.13;3056421;19;20579;-55
2022/09/22 03:04:03;;;;;;;;;;;;;;;9.26;82.52;100554.97;3057177;19;19947;-54
2022/09/22 03:05:08;;;;;;;;;;;;;;;9.31;82.43;100552.03;3056962;19;20387;-55
2022/09/22 03:06:10;;;;;;;;;;;;;;;9.32;82.32;100543.13;3057198;19;19943;-55
2022/09/22 03:07:15;;;;;;;;;;;;;;;9.36;81.93;100547.34;3055743;19;19927;-55
2022/09/22 03:08:17;;;;;;;;;;;;;;;9.37;81.93;100546.41;3056888;19;20056;-55
2022/09/22 03:09:21;;;;;;;;;;;;;;;9.37;81.93;100551.72;3056643;19;19919;-55
2022/09/22 03:10:23;;;;;;;;;;;;;;;9.38;81.93;100548.13;3056597;19;20024;-55
2022/09/22 03:11:28;;;;;;;;;;;;;;;9.40;81.73;100551.56;3056949;19;19983;-54
2022/09/22 03:12:30;;;;;;;;;;;;;;;9.41;81.65;100553.28;3056891;19;20031;-55
2022/09/22 03:13:34;;;;;;;;;;;;;;;9.43;81.91;100556.69;3056333;19;19926;-54
2022/09/22 03:14:36;;;;;;;;;;;;;;;9.45;81.82;100548.63;3056810;19;20428;-55
2022/09/22 03:15:41;;;;;;;;;;;;;;;9.45;81.87;100554.81;3054267;19;19923;-55
2022/09/22 03:16:43;;;;;;;;;;;;;;;9.46;81.78;100556.53;3056469;19;20031;-55
2022/09/22 03:17:47;;;;;;;;;;;;;;;9.48;81.88;100551.13;3055484;19;20664;-55
2022/09/22 03:18:49;;;;;;;;;;;;;;;9.49;81.89;100551.03;3056951;19;20640;-57
2022/09/22 03:19:53;;;;;;;;;;;;;;;9.52;81.76;100550.00;3056262;19;20307;-54
2022/09/22 03:20:55;;;;;;;;;;;;;;;9.54;81.72;100553.47;3057452;19;19939;-55
2022/09/22 03:21:59;;;;;;;;;;;;;;;9.55;81.84;100549.81;3056657;19;19919;-54
2022/09/22 03:23:01;;;;;;;;;;;;;;;9.56;81.57;100551.53;3056585;19;20451;-55
2022/09/22 03:24:06;;;;;;;;;;;;;;;9.58;81.51;100549.66;3056181;19;19918;-55
2022/09/22 03:25:09;;;;;;;;;;;;;;;9.57;81.49;100547.94;3057120;19;19940;-54
2022/09/22 03:26:14;;;;;;;;;;;;;;;9.58;81.66;100550.50;3056861;19;19939;-54
2022/09/22 03:27:15;;;;;;;;;;;;;;;9.60;81.71;100542.44;3056648;19;19926;-55
2022/09/22 03:28:20;;;;;;;;;;;;;;;9.61;81.78;100544.16;3056151;19;20276;-55
2022/09/22 03:29:22;;;;;;;;;;;;;;;9.62;81.68;100546.75;3056927;19;20277;-54
2022/09/22 03:30:27;;;;;;;;;;;;;;;9.62;81.76;100552.06;3055545;19;19931;-55
2022/09/22 03:31:28;;;;;;;;;;;;;;;9.62;81.75;100546.75;3056929;19;19982;-54
2022/09/22 03:32:33;;;;;;;;;;;;;;;9.64;81.68;100549.31;3055986;19;19935;-55
2022/09/22 03:33:35;;;;;;;;;;;;;;;9.67;81.75;100550.00;3055858;19;20008;-55
2022/09/22 03:34:39;;;;;;;;;;;;;;;9.68;81.74;100551.72;3055602;19;19985;-54
2022/09/22 03:35:44;;;;;;;;;;;;;;;9.70;81.53;100544.50;3056826;19;19929;-55
2022/09/22 03:36:48;;;;;;;;;;;;;;;9.71;81.51;100551.53;3056091;19;20330;-55
2022/09/22 03:37:50;;;;;;;;;;;;;;;9.74;81.38;100545.19;3056962;19;21003;-54
2022/09/22 03:38:55;;;;;;;;;;;;;;;9.74;81.46;100551.38;3055012;19;20408;-55
2022/09/22 03:39:57;;;;;;;;;;;;;;;9.75;81.37;100547.75;3056016;19;20270;-55
2022/09/22 03:41:01;;;;;;;;;;;;;;;9.75;81.68;100546.91;3056464;19;19978;-55
2022/09/22 03:42:03;;;;;;;;;;;;;;;9.74;81.64;100550.50;3056949;19;20025;-55
2022/09/22 03:43:08;;;;;;;;;;;;;;;9.74;81.56;100548.72;3055937;19;19923;-55
2022/09/22 03:44:17;;;;;;;;;;;;;;;9.78;81.55;100551.22;3056425;19;20379;-55
2022/09/22 03:45:21;;;;;;;;;;;;;;;9.77;81.59;100546.81;3055865;19;19926;-54
2022/09/22 03:46:23;;;;;;;;;;;;;;;9.75;81.78;100547.75;3056475;19;19919;-54
2022/09/22 03:47:28;;;;;;;;;;;;;;;9.77;81.86;100549.50;3056416;19;19931;-54
2022/09/22 03:48:30;;;;;;;;;;;;;;;9.75;81.85;100545.09;3055852;19;19926;-55
2022/09/22 03:49:35;;;;;;;;;;;;;;;9.77;82.11;100554.81;3055772;19;19956;-55
2022/09/22 03:50:36;;;;;;;;;;;;;;;9.76;82.15;100553.94;3056451;19;20608;-55
2022/09/22 03:51:41;;;;;;;;;;;;;;;9.75;82.07;100547.75;3055935;19;19923;-54
2022/09/22 03:52:43;;;;;;;;;;;;;;;9.77;82.14;100554.81;3056745;19;19926;-55
2022/09/22 03:53:48;;;;;;;;;;;;;;;9.74;82.08;100545.19;3055208;19;19921;-54
2022/09/22 03:54:51;;;;;;;;;;;;;;;9.73;82.29;100544.31;3056326;19;19922;-55
2022/09/22 03:56:05;;;;;;;;;;;;;;;9.75;82.43;100546.91;3056157;19;20322;-54
2022/09/22 03:57:07;;;;;;;;;;;;;;;9.72;82.31;100547.94;3056212;19;19915;-55
2022/09/22 03:58:11;;;;;;;;;;;;;;;9.73;82.43;100549.66;3056001;19;19926;-55
2022/09/22 03:59:13;;;;;;;;;;;;;;;9.74;82.21;100550.50;3055999;19;19922;-54
2022/09/22 04:00:18;;;;;;;;;;;;;;;9.74;82.54;100551.38;3055832;19;19915;-54
2022/09/22 04:01:20;;;;;;;;;;;;;;;9.74;82.23;100551.38;3055980;19;19926;-55
2022/09/22 04:02:24;;;;;;;;;;;;;;;9.74;82.38;100554.03;3056313;19;19919;-55
2022/09/22 04:03:27;;;;;;;;;;;;;;;9.77;82.37;100560.16;3055885;19;19926;-55
2022/09/22 04:04:31;;;;;;;;;;;;;;;9.75;82.33;100555.75;3056542;19;19939;-55
2022/09/22 04:05:33;;;;;;;;;;;;;;;9.70;82.30;100544.50;3055270;19;20887;-55
2022/09/22 04:06:38;;;;;;;;;;;;;;;9.75;82.29;100553.09;3056300;19;20442;-55
2022/09/22 04:07:40;;;;;;;;;;;;;;;9.78;82.25;100551.22;3055580;19;19923;-54
2022/09/22 04:08:44;;;;;;;;;;;;;;;9.77;82.30;100552.16;3056441;19;19981;-55
2022/09/22 04:09:46;;;;;;;;;;;;;;;9.77;82.31;100554.81;3055814;19;19986;-55
2022/09/22 04:10:50;;;;;;;;;;;;;;;9.77;82.23;100557.47;3055853;19;19948;-55
2022/09/22 04:11:52;;;;;;;;;;;;;;;9.78;82.38;100556.53;3055525;19;20271;-55
2022/09/22 04:12:57;;;;;;;;;;;;;;;9.78;82.32;100559.19;3056325;19;19936;-54
2022/09/22 04:14:00;;;;;;;;;;;;;;;9.78;82.40;100556.53;3054689;19;20507;-54
2022/09/22 04:15:05;;;;;;;;;;;;;;;9.79;82.35;100560.88;3054233;19;20409;-55
2022/09/22 04:16:06;;;;;;;;;;;;;;;9.79;82.33;100563.56;3055619;19;19914;-54
2022/09/22 04:17:12;;;;;;;;;;;;;;;9.79;82.39;100569.75;3056172;19;19931;-54
2022/09/22 04:18:14;;;;;;;;;;;;;;;9.80;82.47;100554.63;3055578;19;19930;-56
2022/09/22 04:19:19;;;;;;;;;;;;;;;9.80;82.29;100559.94;3054332;19;19986;-55
2022/09/22 04:20:21;;;;;;;;;;;;;;;9.79;82.36;100550.22;3055560;19;19930;-55
2022/09/22 04:21:27;;;;;;;;;;;;;;;9.80;82.68;100559.94;3055947;19;19919;-55
2022/09/22 04:22:29;;;;;;;;;;;;;;;9.79;82.65;100560.88;3054259;19;19945;-55
2022/09/22 04:23:33;;;;;;;;;;;;;;;9.78;82.56;100559.19;3054877;19;19936;-54
2022/09/22 04:24:36;;;;;;;;;;;;;;;9.79;82.69;100563.56;3054364;19;19923;-55
2022/09/22 04:25:40;;;;;;;;;;;;;;;9.81;82.69;100567.00;3054325;19;20013;-55
2022/09/22 04:26:42;;;;;;;;;;;;;;;9.82;82.72;100568.72;3055278;19;19927;-55
2022/09/22 04:28:07;;;;;;;;;;;;;;;9.84;82.50;100566.84;3055487;19;20615;-54
2022/09/22 04:29:08;;;;;;;;;;;;;;;9.82;82.65;100560.72;3055265;19;19927;-55
2022/09/22 04:30:14;;;;;;;;;;;;;;;9.83;82.75;100565.09;3055568;19;19923;-54
2022/09/22 04:31:16;;;;;;;;;;;;;;;9.83;82.67;100565.97;3054551;19;20362;-54
2022/09/22 04:32:20;;;;;;;;;;;;;;;9.82;82.54;100558.91;3055991;19;19926;-54
2022/09/22 04:33:23;;;;;;;;;;;;;;;9.82;82.93;100560.72;3053914;19;19923;-55
2022/09/22 04:34:27;;;;;;;;;;;;;;;9.82;82.91;100563.38;3054818;19;19953;-55
2022/09/22 04:35:29;;;;;;;;;;;;;;;9.83;82.87;100565.09;3055204;19;19982;-55
2022/09/22 04:36:34;;;;;;;;;;;;;;;9.84;82.94;100572.16;3055543;19;19962;-55
2022/09/22 04:37:36;;;;;;;;;;;;;;;9.83;83.23;100571.31;3055158;19;19919;-54
2022/09/22 04:38:40;;;;;;;;;;;;;;;9.82;83.18;100568.72;3055607;19;20028;-55
2022/09/22 04:39:44;;;;;;;;;;;;;;;9.81;83.03;100570.53;3055694;19;19919;-55
2022/09/22 04:40:48;;;;;;;;;;;;;;;9.82;83.17;100577.56;3055994;19;19948;-55
2022/09/22 04:41:52;;;;;;;;;;;;;;;9.83;83.31;100575.78;3055610;19;19918;-54
2022/09/22 04:42:55;;;;;;;;;;;;;;;9.85;83.15;100576.56;3055420;19;20312;-55
2022/09/22 04:43:59;;;;;;;;;;;;;;;9.84;83.43;100572.16;3054530;19;20346;-54
2022/09/22 04:45:01;;;;;;;;;;;;;;;9.84;83.29;100577.50;3054459;19;20061;-55
2022/09/22 04:46:06;;;;;;;;;;;;;;;9.83;83.53;100586.44;3054619;19;20046;-54
2022/09/22 04:47:10;;;;;;;;;;;;;;;9.83;83.44;100575.78;3054603;19;19995;-54
2022/09/22 04:48:15;;;;;;;;;;;;;;;9.84;83.51;100582.81;3055497;19;20382;-55
2022/09/22 04:49:17;;;;;;;;;;;;;;;9.85;83.31;100581.88;3055038;19;20006;-54
2022/09/22 04:50:22;;;;;;;;;;;;;;;9.84;83.66;100582.81;3055794;19;19923;-54
2022/09/22 04:51:24;;;;;;;;;;;;;;;9.85;83.72;100579.22;3054406;19;19983;-54
2022/09/22 04:52:28;;;;;;;;;;;;;;;9.84;83.57;100577.50;3055000;19;20290;-55
2022/09/22 04:53:30;;;;;;;;;;;;;;;9.83;83.61;100581.09;3055069;19;19914;-54
2022/09/22 04:54:35;;;;;;;;;;;;;;;9.86;83.63;100580.94;3055719;19;19944;-54
2022/09/22 04:55:36;;;;;;;;;;;;;;;9.85;83.76;100580.06;3054710;19;19975;-54
2022/09/22 04:56:41;;;;;;;;;;;;;;;9.84;84.05;100574.81;3055891;19;19926;-54
2022/09/22 04:57:47;;;;;;;;;;;;;;;9.84;84.19;100578.34;3054852;19;19927;-54
2022/09/22 04:58:51;;;;;;;;;;;;;;;9.86;83.93;100578.28;3055401;19;19970;-54
2022/09/22 04:59:53;;;;;;;;;;;;;;;9.88;83.98;100573.72;3055191;19;20336;-54
2022/09/22 05:01:02;;;;;;;;;;;;;;;9.89;83.66;100570.09;3055579;19;20521;-54
2022/09/22 05:02:04;;;;;;;;;;;;;;;9.90;83.79;100572.66;3054843;19;19930;-54
2022/09/22 05:03:10;;;;;;;;;;;;;;;9.92;83.70;100572.56;3055970;19;19926;-54
2022/09/22 05:04:13;;;;;;;;;;;;;;;9.94;83.68;100574.22;3054658;19;19922;-55
2022/09/22 05:05:17;;;;;;;;;;;;;;;9.97;83.43;100579.38;3054819;19;19933;-55
2022/09/22 05:06:19;;;;;;;;;;;;;;;9.98;83.53;100578.44;3054025;19;19920;-54
2022/09/22 05:07:24;;;;;;;;;;;;;;;9.97;83.60;100578.50;3054324;19;19919;-54
2022/09/22 05:08:25;;;;;;;;;;;;;;;9.99;83.89;100576.63;3055642;19;19938;-56
2022/09/22 05:09:30;;;;;;;;;;;;;;;9.99;83.75;100571.28;3055398;19;19923;-57
2022/09/22 05:10:35;;;;;;;;;;;;;;;10.01;83.73;100574.72;3054615;19;19934;-55
2022/09/22 05:11:40;;;;;;;;;;;;;;;10.01;83.71;100574.72;3053834;19;19914;-56
2022/09/22 05:12:41;;;;;;;;;;;;;;;10.04;83.77;100572.72;3054789;19;19939;-57
2022/09/22 05:13:46;;;;;;;;;;;;;;;10.07;83.42;100579.69;3055431;19;19918;-58
2022/09/22 05:14:48;;;;;;;;;;;;;;;10.08;83.37;100565.41;3054428;19;19932;-57
2022/09/22 05:15:52;;;;;;;;;;;;;;;10.11;83.41;100573.25;3055794;19;20414;-57
2022/09/22 05:16:54;;;;;;;;;;;;;;;10.11;83.36;100579.44;3055271;19;20257;-57
2022/09/22 05:17:59;;;;;;;;;;;;;;;10.15;83.45;100576.56;3055852;19;19922;-57
2022/09/22 05:19:00;;;;;;;;;;;;;;;10.17;83.29;100577.34;3055034;19;19960;-57
2022/09/22 05:20:06;;;;;;;;;;;;;;;10.18;83.35;100573.72;3055769;19;19959;-57
2022/09/22 05:21:08;;;;;;;;;;;;;;;10.19;83.33;100573.69;3054158;19;20353;-57
2022/09/22 05:22:12;;;;;;;;;;;;;;;10.22;83.21;100581.50;3054499;19;19927;-54
2022/09/22 05:23:14;;;;;;;;;;;;;;;10.25;83.42;100577.81;3054307;19;19919;-55
2022/09/22 05:24:18;;;;;;;;;;;;;;;10.27;83.09;100582.06;3054589;19;19919;-53
2022/09/22 05:25:20;;;;;;;;;;;;;;;10.29;83.05;100580.19;3055356;19;19914;-54
2022/09/22 05:26:25;;;;;;;;;;;;;;;10.32;83.01;100585.34;3055249;19;19926;-54
2022/09/22 05:27:27;;;;;;;;;;;;;;;10.34;82.95;100583.44;3055552;19;19929;-54
2022/09/22 05:28:31;;;;;;;;;;;;;;;10.35;83.08;100579.84;3055601;19;20355;-54
2022/09/22 05:29:33;;;;;;;;;;;;;;;10.35;83.11;100577.16;3054838;19;19922;-55
2022/09/22 05:30:38;;;;;;;;;;;;;;;10.37;83.26;100588.63;3055880;19;20334;-55
2022/09/22 05:31:39;;;;;;;;;;;;;;;10.39;83.19;100576.03;3057226;19;19919;-54
2022/09/22 05:32:45;;;;;;;;;;;;;;;10.40;83.24;100583.06;3058347;19;19926;-54
2022/09/22 05:33:47;;;;;;;;;;;;;;;10.41;83.52;100589.28;3057767;19;20462;-54
2022/09/22 05:34:51;;;;;;;;;;;;;;;10.41;83.43;100589.28;3058286;19;19939;-54
2022/09/22 05:35:53;;;;;;;;;;;;;;;10.40;83.83;100593.75;3057279;19;19926;-54
2022/09/22 05:36:58;;;;;;;;;;;;;;;10.42;84.01;100597.19;3058031;19;19915;-54
2022/09/22 05:38:00;;;;;;;;;;;;;;;10.44;83.70;100592.63;3058229;19;20358;-54
2022/09/22 05:39:04;;;;;;;;;;;;;;;10.45;83.80;100596.16;3058025;19;19922;-53